Hartville, Ohio
Current Conditions -  °F | °C
As of 6:51 PM on Friday 21 Nov 2014 (Local Time) from KCAK Reporting Station
Clear Clear  
Wind Chill:   Ceiling: Unl
Heat Index: 18°   Visibility: 10mi
Dew Point:   Wind: 7mph
Humidity: 62%   Direction: 190°S
Pressure: 30.45"   Gusts: NA
Location:  40.96°N, 81.33°W
Report Text: KCAK 212351Z 19006KT 10SM CLR M08/M14 A3045 RMK AO2 SLP333 4/002 T10781139 11033 21078 58006
Loading
Personal Weather Stations






























Interactive Weather Map New forecast layout! Learn more

10-Day Weather Forecast

Advertisements
Track Severe Weather on mobile